Stations météo

Publicité
Chillingham Barns, Grande-Bretagne (99196): Température de l'air & dewpoint: 14.08.2019 12:00:00 - 20.08.2019 12:00:00 (BST)Chillingham Barns, Grande-Bretagne (99196): Quantités de précipitations: 14.08.2019 12:00:00 - 20.08.2019 12:00:00 (BST)
Date & Time tt [°C] td [°C] rr [mm]
20.08.2019 12:00:00 16,9 9,0 0,0
20.08.2019 11:00:00 16,3 9,6 0,0
20.08.2019 10:00:00 16,3 11,1 0,0
20.08.2019 09:00:00 13,7 10,2 0,0
20.08.2019 08:00:00 13,0 10,1 0,0
20.08.2019 07:00:00 12,6 9,8 0,0
20.08.2019 06:00:00 12,4 9,6 0,0
20.08.2019 05:00:00 12,4 9,9 0,0
20.08.2019 04:00:00 12,5 9,8 0,0
20.08.2019 03:00:00 12,6 9,8 0,0
20.08.2019 02:00:00 12,9 9,5 0,0
20.08.2019 01:00:00 13,1 9,0 0,0
20.08.2019 00:00:00 13,7 8,7 0,0
19.08.2019 23:00:00 12,5 8,8 0,0
19.08.2019 22:00:00 11,3 8,6 0,0
19.08.2019 21:00:00 12,7 9,5 0,0
19.08.2019 20:00:00 13,7 9,3 0,0
19.08.2019 19:00:00 15,7 9,3 0,0
19.08.2019 18:00:00 16,5 9,2 0,0
19.08.2019 17:00:00 16,7 10,3 0,0
19.08.2019 16:00:00 16,4 8,9 0,0
19.08.2019 15:00:00 16,7 9,3 0,0
19.08.2019 14:00:00 19,3 13,0 0,0
19.08.2019 13:00:00 16,6 9,9 0,0
19.08.2019 12:00:00 18,2 11,8 0,0
19.08.2019 11:00:00 16,7 10,5 0,0
19.08.2019 10:00:00 15,6 10,3 0,0
19.08.2019 09:00:00 15,0 10,2 0,0
19.08.2019 08:00:00 13,5 9,5 0,0
19.08.2019 07:00:00 13,2 10,1 0,0
19.08.2019 06:00:00 13,2 10,4 0,0
19.08.2019 05:00:00 13,3 10,2 0,0
19.08.2019 04:00:00 13,6 10,0 0,0
19.08.2019 03:00:00 13,4 9,6 0,0
19.08.2019 02:00:00 13,4 10,1 0,0
19.08.2019 01:00:00 13,5 10,3 0,0
19.08.2019 00:00:00 12,6 10,1 0,0
18.08.2019 23:00:00 12,0 10,2 0,0
18.08.2019 22:00:00 12,5 10,0 0,0
18.08.2019 21:00:00 12,5 9,6 0,0
18.08.2019 20:00:00 13,9 10,4 0,0
18.08.2019 19:00:00 14,5 11,1 0,2
18.08.2019 18:00:00 14,7 11,3 0,2
18.08.2019 17:00:00 13,8 11,3 0,4
18.08.2019 16:00:00 16,8 9,6 0,0
18.08.2019 15:00:00 17,3 9,4 0,0
18.08.2019 14:00:00 17,6 11,3 0,0
18.08.2019 13:00:00 16,7 11,4 0,0
18.08.2019 12:00:00 15,1 11,3 0,0
18.08.2019 11:00:00 15,5 11,3 0,0
18.08.2019 10:00:00 15,6 10,5 0,0
18.08.2019 09:00:00 14,4 9,4 0,0
18.08.2019 08:00:00 13,2 9,4 0,0
18.08.2019 07:00:00 11,8 9,2 0,0
18.08.2019 06:00:00 11,5 9,6 0,0
18.08.2019 05:00:00 11,3 9,4 0,0
18.08.2019 04:00:00 11,7 9,8 0,0
18.08.2019 03:00:00 12,1 10,1 0,0
18.08.2019 02:00:00 11,4 9,9 0,0
18.08.2019 01:00:00 11,6 9,8 0,0
18.08.2019 00:00:00 12,6 10,4 0,0
17.08.2019 23:00:00 13,5 10,4 0,0
17.08.2019 22:00:00 14,3 9,9 0,0
17.08.2019 21:00:00 14,4 9,3 0,0
17.08.2019 20:00:00 15,4 9,2 0,0
17.08.2019 19:00:00 16,4 9,2 0,0
17.08.2019 18:00:00 17,1 8,8 0,0
17.08.2019 17:00:00 17,9 8,8 0,0
17.08.2019 16:00:00 17,6 7,7 0,0
17.08.2019 15:00:00 18,6 10,2 0,0
17.08.2019 14:00:00 18,6 10,7 0,0
17.08.2019 13:00:00 15,7 9,2 0,0
17.08.2019 12:00:00 17,9 10,3 0,0
17.08.2019 11:00:00 16,8 9,8 0,0
17.08.2019 10:00:00 16,0 10,3 0,0
17.08.2019 09:00:00 15,2 11,5 0,0
17.08.2019 08:00:00 13,7 12,4 0,0
17.08.2019 07:00:00 13,3 12,8 1,6
17.08.2019 06:00:00 13,4 11,1 0,0
17.08.2019 05:00:00 13,7 11,1 0,0
17.08.2019 04:00:00 13,9 11,5 0,0
17.08.2019 03:00:00 14,5 12,5 0,0
17.08.2019 02:00:00 14,1 11,9 0,0
17.08.2019 01:00:00 14,5 12,5 0,0
17.08.2019 00:00:00 15,1 14,0 0,2
16.08.2019 23:00:00 15,8 15,4 2,4
16.08.2019 22:00:00 16,0 14,9 0,0
16.08.2019 21:00:00 16,4 14,8 0,0
16.08.2019 20:00:00 17,2 14,6 0,0
16.08.2019 19:00:00 17,8 14,5 0,0
16.08.2019 18:00:00 17,7 14,3 0,0
16.08.2019 17:00:00 17,4 14,1 0,0
16.08.2019 16:00:00 17,5 13,9 0,0
16.08.2019 15:00:00 17,3 13,9 0,0
16.08.2019 14:00:00 16,7 13,6 0,0
16.08.2019 13:00:00 16,2 13,7 0,2
16.08.2019 12:00:00 14,2 12,9 0,2
16.08.2019 11:00:00 14,0 12,6 0,0
16.08.2019 10:00:00 13,7 12,2 0,0
16.08.2019 09:00:00 13,6 12,3 0,0
16.08.2019 08:00:00 13,5 12,1 0,4
16.08.2019 07:00:00 14,3 11,4 0,0
16.08.2019 06:00:00 12,9 11,2 0,0
16.08.2019 05:00:00 12,3 10,3 0,0
16.08.2019 04:00:00 13,3 10,6 0,0
16.08.2019 03:00:00 13,1 10,0 0,0
16.08.2019 02:00:00 13,8 9,9 0,0
16.08.2019 01:00:00 13,2 10,0 0,0
16.08.2019 00:00:00 12,7 8,9 0,0
15.08.2019 23:00:00 11,6 8,1 0,0
15.08.2019 22:00:00 11,4 8,0 0,0
15.08.2019 21:00:00 12,9 7,5 0,0
15.08.2019 20:00:00 14,6 8,3 0,0
15.08.2019 19:00:00 16,0 8,1 0,0
15.08.2019 18:00:00 16,3 7,6 0,0
15.08.2019 17:00:00 17,7 7,3 0,0
15.08.2019 16:00:00 19,2 9,9 0,0
15.08.2019 15:00:00 16,8 10,3 0,0
15.08.2019 14:00:00 16,2 11,0 0,0
15.08.2019 13:00:00 15,9 11,1 0,0
15.08.2019 12:00:00 16,3 11,7 0,0
15.08.2019 11:00:00 15,7 11,5 0,0
15.08.2019 10:00:00 16,3 12,8 0,0
15.08.2019 09:00:00 15,6 12,4 0,0
15.08.2019 08:00:00 15,0 13,1 0,0
15.08.2019 07:00:00 13,3 12,4 0,0
15.08.2019 06:00:00 12,4 11,8 0,0
15.08.2019 05:00:00 12,8 12,5 0,0
15.08.2019 04:00:00 12,1 11,3 0,0
15.08.2019 03:00:00 14,3 13,9 2,6
15.08.2019 02:00:00 14,5 14,1 0,0
15.08.2019 01:00:00 14,3 13,9 0,0
15.08.2019 00:00:00 14,5 14,0 0,0
14.08.2019 23:00:00 14,5 14,0 0,0
14.08.2019 22:00:00 14,5 14,0 0,0
14.08.2019 21:00:00 14,4 13,9 0,0
14.08.2019 20:00:00 14,4 13,7 0,0
14.08.2019 19:00:00 14,3 13,5 0,2
14.08.2019 18:00:00 14,6 13,6 0,8
14.08.2019 17:00:00 14,4 13,1 0,2
14.08.2019 16:00:00 14,4 12,4 0,2
14.08.2019 15:00:00 15,3 12,3 0,0
14.08.2019 14:00:00 15,3 12,0 0,0
14.08.2019 13:00:00 14,3 12,0 0,0
14.08.2019 12:00:00 13,9 12,0 0,0

tt = Température de l'air
td = dewpoint
rr = Quantités de précipitations

stations d'obs. à proximité